createdAt,value
2023-04-04T00:01:44.190Z,8.00
2023-04-04T00:04:48.260Z,8.00
2023-04-04T00:07:53.169Z,9.00
2023-04-04T00:10:59.546Z,7.75
2023-04-04T00:14:03.736Z,9.00
2023-04-04T00:17:07.025Z,8.00
2023-04-04T00:20:11.401Z,8.00
2023-04-04T00:23:16.093Z,8.00
2023-04-04T00:26:20.014Z,8.25
2023-04-04T00:29:23.324Z,12.00
2023-04-04T00:32:26.790Z,11.00
2023-04-04T00:35:30.487Z,8.40
2023-04-04T00:38:35.155Z,8.00
2023-04-04T00:41:38.782Z,10.00
2023-04-04T00:44:42.203Z,7.00
2023-04-04T00:47:45.862Z,9.25
2023-04-04T00:50:49.156Z,8.00
2023-04-04T00:53:53.928Z,9.75
2023-04-04T00:56:58.771Z,9.20
2023-04-04T01:00:06.579Z,10.00
2023-04-04T01:03:12.844Z,10.00
2023-04-04T01:06:17.245Z,9.60
2023-04-04T01:09:23.181Z,9.00
2023-04-04T01:12:27.201Z,10.00
2023-04-04T01:15:31.183Z,8.25
2023-04-04T01:18:37.548Z,11.00
2023-04-04T01:21:42.554Z,9.00
2023-04-04T01:24:49.481Z,9.60
2023-04-04T01:27:54.753Z,9.00
2023-04-04T01:31:02.096Z,10.00
2023-04-04T01:34:13.747Z,9.40
2023-04-04T01:37:22.353Z,9.25
2023-04-04T01:40:30.201Z,8.40
2023-04-04T01:43:35.005Z,10.00
2023-04-04T01:46:39.681Z,11.00
2023-04-04T01:49:44.654Z,12.00
2023-04-04T01:52:50.142Z,7.00
2023-04-04T01:55:54.430Z,12.20
2023-04-04T01:58:59.537Z,9.00
2023-04-04T02:02:02.848Z,9.20
2023-04-04T02:05:06.764Z,8.00
2023-04-04T02:08:10.212Z,10.40
2023-04-04T02:11:23.311Z,9.00
2023-04-04T02:14:28.805Z,12.67
2023-04-04T02:17:33.340Z,9.00
2023-04-04T02:20:36.662Z,9.00
2023-04-04T02:23:39.994Z,11.40
2023-04-04T02:26:43.335Z,10.00
2023-04-04T02:29:48.772Z,8.50
2023-04-04T02:32:52.495Z,11.00
2023-04-04T02:35:58.527Z,13.00
2023-04-04T02:39:02.486Z,9.20
2023-04-04T02:42:07.342Z,10.00
2023-04-04T02:45:14.771Z,9.80
2023-04-04T02:48:26.438Z,9.40
2023-04-04T02:51:34.661Z,10.60
2023-04-04T02:54:38.621Z,9.00
2023-04-04T02:57:43.280Z,11.80
2023-04-04T03:00:54.617Z,12.00
2023-04-04T03:04:00.635Z,12.00
2023-04-04T03:07:05.130Z,8.67
2023-04-04T03:10:09.120Z,10.40
2023-04-04T03:13:12.460Z,12.00
2023-04-04T03:16:19.761Z,12.00
2023-04-04T03:19:26.974Z,10.00
2023-04-04T03:22:30.699Z,13.00
2023-04-04T03:25:37.427Z,12.00
2023-04-04T03:28:42.766Z,10.00
2023-04-04T03:31:49.162Z,10.00
2023-04-04T03:34:52.708Z,11.40
2023-04-04T03:37:56.332Z,9.00
2023-04-04T03:41:03.966Z,9.75
2023-04-04T03:44:07.542Z,13.25
2023-04-04T03:47:12.232Z,11.60
2023-04-04T03:50:15.749Z,10.60
2023-04-04T03:53:24.894Z,11.00
2023-04-04T03:56:28.754Z,9.75
2023-04-04T03:59:32.235Z,10.40
2023-04-04T04:02:37.206Z,8.50
2023-04-04T04:05:40.648Z,9.00
2023-04-04T04:08:44.032Z,9.00
2023-04-04T04:11:47.588Z,8.00
2023-04-04T04:14:51.578Z,8.00
2023-04-04T04:17:57.110Z,9.00
2023-04-04T04:21:04.196Z,7.00
2023-04-04T04:24:10.637Z,7.00
2023-04-04T04:27:14.038Z,8.00
2023-04-04T04:30:18.565Z,7.00
2023-04-04T04:33:30.645Z,5.80
2023-04-04T04:36:38.821Z,7.00
2023-04-04T04:40:17.710Z,8.40
2023-04-04T04:43:30.203Z,8.00
2023-04-04T04:46:33.570Z,8.00
2023-04-04T04:49:39.518Z,9.60
2023-04-04T04:52:45.369Z,9.60
2023-04-04T04:55:52.775Z,6.80
2023-04-04T04:58:56.950Z,9.00
2023-04-04T05:02:02.861Z,8.00
2023-04-04T05:05:09.084Z,8.00
2023-04-04T05:08:13.971Z,9.00
2023-04-04T05:11:28.570Z,9.00
2023-04-04T05:14:32.070Z,9.40
2023-04-04T05:17:36.903Z,8.40
2023-04-04T05:20:45.054Z,7.40
2023-04-04T05:23:50.637Z,8.40
2023-04-04T05:26:55.750Z,9.40
2023-04-04T05:29:59.587Z,11.00
2023-04-04T05:33:12.575Z,9.40
2023-04-04T05:36:22.264Z,8.00
2023-04-04T05:39:33.618Z,9.50
2023-04-04T05:42:41.370Z,9.40
2023-04-04T05:45:44.687Z,7.00
2023-04-04T05:48:50.297Z,11.00
2023-04-04T05:51:56.707Z,9.00
2023-04-04T05:55:01.080Z,8.00
2023-04-04T05:58:07.922Z,8.60
2023-04-04T06:01:23.105Z,8.00
2023-04-04T06:04:29.458Z,9.00
2023-04-04T06:07:36.803Z,8.00
2023-04-04T06:10:40.275Z,9.00
2023-04-04T06:13:43.928Z,7.40
2023-04-04T06:16:52.086Z,6.60
2023-04-04T06:19:55.730Z,9.50
2023-04-04T06:23:04.029Z,7.80
2023-04-04T06:26:09.778Z,9.00
2023-04-04T06:29:15.313Z,10.00
2023-04-04T06:32:20.721Z,8.00
2023-04-04T06:35:24.714Z,9.75
2023-04-04T06:38:36.746Z,8.00
2023-04-04T06:41:46.111Z,8.20
2023-04-04T06:44:50.400Z,11.00
2023-04-04T06:47:54.551Z,8.60
2023-04-04T06:50:57.904Z,10.00
2023-04-04T06:54:03.859Z,8.00
2023-04-04T06:57:07.111Z,9.00
2023-04-04T07:00:11.920Z,8.00
2023-04-04T07:03:15.463Z,7.00
2023-04-04T07:06:19.655Z,7.40
2023-04-04T07:09:29.140Z,9.00
2023-04-04T07:12:33.646Z,8.60
2023-04-04T07:15:36.993Z,9.25
2023-04-04T07:18:40.307Z,7.80
2023-04-04T07:21:43.535Z,9.00
2023-04-04T07:24:48.404Z,9.00
2023-04-04T07:28:02.350Z,9.00
2023-04-04T07:31:14.907Z,9.00
2023-04-04T07:34:18.255Z,9.00
2023-04-04T07:37:21.688Z,8.00
2023-04-04T07:40:26.360Z,9.00
2023-04-04T07:43:29.651Z,8.00
2023-04-04T07:46:33.076Z,10.75
2023-04-04T07:49:36.516Z,9.20
2023-04-04T07:52:39.846Z,10.60
2023-04-04T07:55:44.720Z,8.00
2023-04-04T07:58:48.000Z,10.00
2023-04-04T08:01:51.324Z,7.00
2023-04-04T08:04:54.695Z,9.00
2023-04-04T08:07:58.219Z,9.00
2023-04-04T08:11:02.915Z,7.25
2023-04-04T08:14:06.426Z,7.40
2023-04-04T08:17:09.757Z,7.20
2023-04-04T08:20:14.428Z,7.40
2023-04-04T08:23:17.703Z,9.00
2023-04-04T08:26:22.610Z,8.75
2023-04-04T08:29:26.879Z,10.00
2023-04-04T08:32:30.403Z,10.00
2023-04-04T08:35:33.900Z,8.00
2023-04-04T08:38:37.156Z,8.60
2023-04-04T08:41:46.621Z,9.00
2023-04-04T08:44:54.263Z,8.00
2023-04-04T08:48:00.960Z,8.00
2023-04-04T08:51:05.536Z,7.75
2023-04-04T08:54:10.607Z,8.00
2023-04-04T08:57:15.382Z,7.00
2023-04-04T09:00:21.684Z,8.75
2023-04-04T09:03:27.550Z,11.00
2023-04-04T09:06:32.223Z,9.00
2023-04-04T09:09:38.034Z,9.40
2023-04-04T09:12:47.631Z,7.00
2023-04-04T09:15:54.288Z,8.75
2023-04-04T09:18:57.620Z,7.00
2023-04-04T09:22:00.813Z,7.40
2023-04-04T09:25:08.963Z,6.00
2023-04-04T09:28:15.781Z,7.00
2023-04-04T09:31:19.047Z,7.00
2023-04-04T09:34:22.844Z,6.00
2023-04-04T09:37:26.434Z,5.00
2023-04-04T09:40:30.719Z,7.00
2023-04-04T09:43:35.931Z,6.00
2023-04-04T09:46:40.043Z,5.25
2023-04-04T09:49:44.150Z,6.50
2023-04-04T09:52:50.178Z,4.60
2023-04-04T09:55:55.078Z,6.00
2023-04-04T09:59:04.683Z,8.00
2023-04-04T10:02:11.215Z,7.00
2023-04-04T10:05:15.652Z,8.60
2023-04-04T10:08:25.162Z,6.50
2023-04-04T10:11:33.846Z,7.80
2023-04-04T10:14:39.110Z,8.00
2023-04-04T10:17:42.963Z,8.00
2023-04-04T10:20:49.020Z,6.75
2023-04-04T10:23:54.261Z,6.20
2023-04-04T10:26:57.856Z,6.20
2023-04-04T10:30:03.196Z,5.40
2023-04-04T10:33:12.974Z,7.00
2023-04-04T10:36:21.745Z,7.00
2023-04-04T10:39:28.337Z,7.40
2023-04-04T10:42:38.753Z,7.40
2023-04-04T10:45:43.877Z,7.00
2023-04-04T10:48:48.703Z,8.00
2023-04-04T10:51:57.009Z,10.00
2023-04-04T10:55:06.353Z,7.00
2023-04-04T10:58:09.761Z,5.20
2023-04-04T11:01:16.480Z,7.75
2023-04-04T11:04:22.075Z,7.40
2023-04-04T11:07:29.399Z,8.00
2023-04-04T11:10:36.196Z,7.50
2023-04-04T11:13:41.524Z,5.20
2023-04-04T11:16:53.626Z,6.20
2023-04-04T11:20:00.459Z,4.25
2023-04-04T11:23:05.635Z,7.50
2023-04-04T11:26:09.110Z,5.00
2023-04-04T11:29:24.098Z,8.00
2023-04-04T11:32:50.279Z,5.00
2023-04-04T11:36:07.732Z,6.00
2023-04-04T11:39:16.978Z,6.00
2023-04-04T11:42:22.394Z,6.50
2023-04-04T11:45:27.269Z,5.00
2023-04-04T11:48:34.083Z,7.50
2023-04-04T11:51:37.740Z,6.00
2023-04-04T11:54:42.492Z,9.50
2023-04-04T11:57:47.865Z,7.00
2023-04-04T12:00:51.211Z,6.20
2023-04-04T12:03:56.342Z,7.60
2023-04-04T12:07:00.444Z,6.00
2023-04-04T12:10:04.724Z,8.00
2023-04-04T12:13:09.960Z,7.00
2023-04-04T12:16:13.394Z,6.00
2023-04-04T12:19:18.665Z,9.00
2023-04-04T12:22:22.303Z,6.00
2023-04-04T12:25:28.435Z,4.00
2023-04-04T12:28:34.879Z,7.00
2023-04-04T12:31:41.339Z,8.00
2023-04-04T12:34:50.709Z,7.00
2023-04-04T12:38:04.784Z,6.40
2023-04-04T12:41:17.622Z,6.00
2023-04-04T12:44:29.270Z,6.50
2023-04-04T12:47:32.751Z,6.80
2023-04-04T12:50:50.893Z,5.00
2023-04-04T12:53:56.674Z,8.00
2023-04-04T12:57:01.504Z,5.00
2023-04-04T13:00:09.181Z,7.00
2023-04-04T13:03:15.728Z,4.80
2023-04-04T13:06:21.501Z,5.75
2023-04-04T13:09:25.215Z,4.80
2023-04-04T13:12:28.786Z,8.00
2023-04-04T13:15:51.681Z,6.00
2023-04-04T13:18:54.938Z,7.00
2023-04-04T13:21:59.679Z,7.00
2023-04-04T13:25:02.901Z,9.00
2023-04-04T13:28:06.490Z,5.50
2023-04-04T13:31:11.858Z,7.00
2023-04-04T13:34:15.337Z,7.00
2023-04-04T13:37:20.457Z,4.00
2023-04-04T13:40:23.896Z,8.80
2023-04-04T13:43:27.504Z,6.00
2023-04-04T13:46:30.789Z,8.00
2023-04-04T13:49:34.081Z,8.00
2023-04-04T13:52:38.787Z,6.60
2023-04-04T13:55:56.857Z,9.00
2023-04-04T13:59:05.549Z,10.00
2023-04-04T14:02:09.285Z,6.60
2023-04-04T14:05:12.563Z,8.25
2023-04-04T14:08:17.211Z,8.60
2023-04-04T14:11:21.003Z,7.20
2023-04-04T14:14:24.329Z,11.00
2023-04-04T14:17:27.954Z,8.80
2023-04-04T14:20:31.880Z,8.00
2023-04-04T14:23:37.146Z,7.00
2023-04-04T14:26:40.388Z,8.00
2023-04-04T14:29:43.620Z,8.00
2023-04-04T14:32:47.475Z,10.00
2023-04-04T14:35:51.077Z,10.00
2023-04-04T14:38:55.851Z,8.00
2023-04-04T14:41:59.042Z,9.00
2023-04-04T14:45:07.576Z,9.67
2023-04-04T14:48:11.116Z,9.20
2023-04-04T14:51:15.332Z,10.00
2023-04-04T14:54:20.057Z,11.00
2023-04-04T14:57:23.630Z,10.00
2023-04-04T15:00:27.142Z,10.60
2023-04-04T15:03:48.850Z,9.20
2023-04-04T15:06:52.925Z,11.00
2023-04-04T15:10:02.796Z,13.20
2023-04-04T15:13:07.261Z,11.00
2023-04-04T15:16:10.832Z,14.00
2023-04-04T15:19:14.387Z,11.00
2023-04-04T15:22:17.560Z,9.25
2023-04-04T15:25:22.525Z,11.80
2023-04-04T15:28:25.747Z,11.00
2023-04-04T15:31:29.006Z,10.80
2023-04-04T15:34:32.229Z,9.00
2023-04-04T15:37:35.523Z,9.00
2023-04-04T15:40:40.347Z,8.60
2023-04-04T15:43:43.716Z,10.00
2023-04-04T15:46:46.942Z,11.00
2023-04-04T15:49:50.324Z,11.00
2023-04-04T15:52:53.531Z,10.00
2023-04-04T15:55:58.404Z,8.00
2023-04-04T15:59:01.683Z,11.00
2023-04-04T16:02:05.997Z,11.25
2023-04-04T16:05:09.960Z,11.00
2023-04-04T16:08:14.509Z,13.00
2023-04-04T16:11:19.363Z,12.60
2023-04-04T16:14:22.659Z,12.00
2023-04-04T16:17:26.266Z,11.60
2023-04-04T16:20:30.232Z,10.40
2023-04-04T16:23:33.600Z,8.75
2023-04-04T16:26:38.707Z,9.00
2023-04-04T16:29:41.930Z,8.20
2023-04-04T16:32:46.683Z,8.60
2023-04-04T16:35:49.995Z,11.80
2023-04-04T16:38:54.691Z,13.00
2023-04-04T16:42:00.551Z,12.75
2023-04-04T16:45:03.931Z,7.60
2023-04-04T16:48:07.627Z,12.50
2023-04-04T16:51:11.374Z,13.33
2023-04-04T16:54:14.657Z,10.75
2023-04-04T16:57:19.307Z,11.00
2023-04-04T17:00:23.758Z,10.25
2023-04-04T17:03:27.097Z,12.00
2023-04-04T17:06:31.326Z,10.00
2023-04-04T17:09:36.452Z,10.40
2023-04-04T17:12:41.722Z,10.00
2023-04-04T17:15:44.943Z,10.20
2023-04-04T17:18:48.194Z,12.20
2023-04-04T17:21:52.621Z,12.00
2023-04-04T17:24:55.869Z,9.00
2023-04-04T17:28:00.581Z,10.00
2023-04-04T17:31:04.033Z,13.00
2023-04-04T17:34:07.723Z,12.00
2023-04-04T17:37:11.629Z,13.67
2023-04-04T17:40:15.539Z,13.00
2023-04-04T17:43:20.247Z,13.60
2023-04-04T17:46:24.913Z,13.00
2023-04-04T17:49:28.267Z,11.00
2023-04-04T17:52:31.968Z,11.20
2023-04-04T17:55:35.637Z,13.60
2023-04-04T17:58:40.613Z,13.00
2023-04-04T18:01:44.336Z,14.00
2023-04-04T18:04:48.125Z,14.00
2023-04-04T18:07:51.352Z,13.20
2023-04-04T18:10:55.219Z,14.00
2023-04-04T18:13:59.815Z,14.60
2023-04-04T18:17:03.258Z,12.00
2023-04-04T18:20:08.489Z,10.50
2023-04-04T18:23:12.300Z,11.00
2023-04-04T18:26:15.512Z,10.60
2023-04-04T18:29:20.192Z,12.00
2023-04-04T18:32:25.768Z,13.40
2023-04-04T18:35:29.443Z,13.00
2023-04-04T18:38:32.755Z,14.20
2023-04-04T18:41:36.262Z,13.00
2023-04-04T18:44:41.293Z,17.00
2023-04-04T18:47:44.638Z,12.67
2023-04-04T18:50:47.981Z,15.00
2023-04-04T18:53:51.750Z,17.75
2023-04-04T18:56:56.233Z,13.60
2023-04-04T19:00:00.910Z,16.20
2023-04-04T19:03:04.747Z,13.00
2023-04-04T19:06:10.393Z,14.60
2023-04-04T19:09:14.258Z,13.60
2023-04-04T19:12:17.572Z,15.20
2023-04-04T19:15:22.493Z,14.20
2023-04-04T19:18:26.546Z,16.00
2023-04-04T19:21:29.800Z,15.60
2023-04-04T19:24:33.286Z,17.00
2023-04-04T19:27:36.533Z,16.00
2023-04-04T19:30:47.424Z,14.80
2023-04-04T19:33:55.054Z,15.00
2023-04-04T19:36:58.442Z,14.20
2023-04-04T19:40:01.729Z,13.00
2023-04-04T19:43:05.621Z,12.60
2023-04-04T19:46:11.483Z,14.00
2023-04-04T19:49:16.534Z,15.00
2023-04-04T19:52:24.997Z,15.00
2023-04-04T19:55:40.501Z,17.40
2023-04-04T19:58:44.214Z,15.60
2023-04-04T20:01:59.737Z,12.75
2023-04-04T20:05:24.582Z,11.60
2023-04-04T20:08:36.818Z,14.00
2023-04-04T20:11:40.238Z,14.00
2023-04-04T20:14:43.501Z,14.00
2023-04-04T20:17:48.562Z,13.60
2023-04-04T20:20:58.998Z,12.50
2023-04-04T20:24:04.541Z,14.00
2023-04-04T20:27:08.089Z,14.60
2023-04-04T20:30:14.147Z,14.00
2023-04-04T20:33:33.886Z,14.40
2023-04-04T20:36:43.052Z,15.00
2023-04-04T20:39:53.438Z,12.00
2023-04-04T20:42:56.697Z,15.00
2023-04-04T20:46:00.199Z,14.00
2023-04-04T20:49:06.272Z,11.00
2023-04-04T20:52:09.573Z,10.20
2023-04-04T20:55:13.885Z,13.50
2023-04-04T20:58:29.202Z,16.40
2023-04-04T21:01:32.536Z,13.40
2023-04-04T21:04:37.510Z,15.00
2023-04-04T21:07:43.734Z,12.50
2023-04-04T21:10:51.459Z,11.00
2023-04-04T21:13:56.063Z,14.60
2023-04-04T21:16:59.380Z,13.00
2023-04-04T21:20:15.638Z,13.50
2023-04-04T21:23:32.845Z,11.60
2023-04-04T21:26:37.622Z,10.00
2023-04-04T21:29:45.750Z,10.20
2023-04-04T21:32:48.984Z,12.00
2023-04-04T21:35:56.207Z,16.60
2023-04-04T21:39:00.724Z,13.00
2023-04-04T21:42:07.974Z,14.00
2023-04-04T21:45:12.565Z,11.80
2023-04-04T21:48:16.075Z,9.00
2023-04-04T21:51:21.029Z,11.00
2023-04-04T21:54:24.314Z,11.00
2023-04-04T21:57:27.529Z,11.40
2023-04-04T22:00:31.885Z,11.00
2023-04-04T22:03:35.163Z,9.75
2023-04-04T22:06:40.099Z,10.20
2023-04-04T22:09:43.302Z,12.00
2023-04-04T22:12:49.727Z,13.40
2023-04-04T22:15:53.048Z,12.80
2023-04-04T22:18:56.278Z,11.00
2023-04-04T22:22:00.849Z,12.00
2023-04-04T22:25:06.878Z,10.00
2023-04-04T22:31:55.055Z,10.50
2023-04-04T22:34:58.356Z,11.00
2023-04-04T22:38:03.707Z,9.60
2023-04-04T22:41:07.371Z,10.00
2023-04-04T22:44:10.942Z,12.00
2023-04-04T22:47:14.399Z,11.00
2023-04-04T22:50:19.728Z,10.40
2023-04-04T22:53:25.718Z,8.80
2023-04-04T22:56:29.581Z,10.00
2023-04-04T22:59:32.829Z,15.00
2023-04-04T23:02:36.403Z,10.40
2023-04-04T23:54:18.349Z,13.00
2023-04-04T23:57:21.792Z,12.00
